Time;durP1;ratioP1;P1;durP2;ratioP2;P2;SDS_P1;SDS_P2;PMS_P1;PMS_P2;Temp;Humidity;BMP_temperature;BMP_pressure;BME280_temperature;BME280_humidity;BME280_pressure;Samples;Min_cycle;Max_cycle;Signal;HPM_P1;HPM_P2
2022/12/18 00:02:47;;;;;;;49.40;36.30;;;-2.60;95.00;;;;;;10408958;28;20540;-81
2022/12/18 00:07:50;;;;;;;53.00;39.63;;;-2.60;95.70;;;;;;10407022;28;20624;-82
2022/12/18 00:12:52;;;;;;;53.23;39.80;;;-2.60;96.00;;;;;;10416483;28;20456;-81
2022/12/18 00:17:54;;;;;;;53.20;39.23;;;-2.60;96.20;;;;;;10441057;28;20451;-81
2022/12/18 00:22:58;;;;;;;48.53;36.13;;;-2.50;95.70;;;;;;10423306;28;20473;-81
2022/12/18 00:28:00;;;;;;;59.13;43.83;;;-2.50;95.20;;;;;;10405618;28;20324;-81
2022/12/18 00:33:02;;;;;;;61.03;42.83;;;-2.50;96.20;;;;;;10387907;28;20277;-81
2022/12/18 00:38:06;;;;;;;54.57;38.97;;;-2.50;96.10;;;;;;10404802;28;20524;-82
2022/12/18 00:43:11;;;;;;;50.43;38.33;;;-2.40;96.30;;;;;;10421421;28;20306;-81
2022/12/18 00:48:13;;;;;;;55.13;38.50;;;-2.40;95.20;;;;;;10401536;28;20487;-81
2022/12/18 00:53:16;;;;;;;42.70;32.07;;;-2.40;94.90;;;;;;10411721;28;20444;-81
2022/12/18 00:58:19;;;;;;;53.07;37.50;;;-2.50;95.10;;;;;;10384052;28;20769;-81
2022/12/18 01:03:21;;;;;;;51.33;37.00;;;-2.50;94.80;;;;;;10386037;28;20228;-79
2022/12/18 01:08:24;;;;;;;52.70;36.67;;;-2.60;95.20;;;;;;10400492;28;20728;-80
2022/12/18 01:13:26;;;;;;;49.10;34.10;;;-2.60;94.80;;;;;;10420015;28;20433;-80
2022/12/18 01:18:29;;;;;;;52.37;37.70;;;-2.70;94.90;;;;;;10402637;28;20480;-80
2022/12/18 01:23:32;;;;;;;55.73;38.93;;;-2.70;95.70;;;;;;10404031;28;20194;-80
2022/12/18 01:28:36;;;;;;;51.27;35.80;;;-2.70;96.10;;;;;;10414175;28;20225;-80
2022/12/18 01:33:38;;;;;;;47.37;35.70;;;-2.60;96.90;;;;;;10405774;28;20447;-80
2022/12/18 01:38:43;;;;;;;43.13;32.83;;;-2.40;96.70;;;;;;10412202;28;20300;-80
2022/12/18 01:43:49;;;;;;;45.10;33.70;;;-2.30;96.10;;;;;;10420453;28;20455;-80
2022/12/18 01:48:54;;;;;;;45.00;33.90;;;-2.30;95.70;;;;;;10402131;28;20600;-81
2022/12/18 01:54:00;;;;;;;48.23;36.77;;;-2.30;96.30;;;;;;10405729;28;20437;-80
2022/12/18 01:59:05;;;;;;;47.00;36.90;;;-2.20;96.80;;;;;;10405281;28;20217;-80
2022/12/18 02:04:22;;;;;;;46.67;35.77;;;-2.20;96.50;;;;;;10416113;28;20208;-79
2022/12/18 02:09:32;;;;;;;44.97;35.70;;;-2.10;96.60;;;;;;10410057;28;20229;-79
2022/12/18 02:14:41;;;;;;;48.13;35.80;;;-2.10;96.30;;;;;;10401647;28;20288;-80
2022/12/18 02:19:55;;;;;;;49.27;38.00;;;-2.00;95.90;;;;;;10384240;28;20481;-81
2022/12/18 02:25:12;;;;;;;52.20;37.53;;;-1.90;96.60;;;;;;10401737;28;20479;-81
2022/12/18 02:30:16;;;;;;;50.63;38.30;;;-1.90;96.60;;;;;;10403316;28;20220;-80
2022/12/18 02:35:24;;;;;;;50.37;41.20;;;-1.80;96.30;;;;;;10384305;28;20206;-79
2022/12/18 02:40:30;;;;;;;48.30;38.07;;;-1.80;95.70;;;;;;10399267;28;20214;-80
2022/12/18 02:45:35;;;;;;;47.20;36.20;;;-1.70;95.70;;;;;;10400019;28;20205;-81
2022/12/18 02:50:45;;;;;;;47.27;36.40;;;-1.80;95.90;;;;;;10399707;28;20221;-81
2022/12/18 02:56:03;;;;;;;47.43;35.87;;;-1.80;96.20;;;;;;10399957;28;20276;-81
2022/12/18 03:01:16;;;;;;;44.43;35.00;;;-1.70;95.70;;;;;;10399227;28;20312;-80
2022/12/18 03:06:24;;;;;;;42.27;34.67;;;-1.80;95.60;;;;;;10377253;28;20213;-81
2022/12/18 03:16:53;;;;;;;40.57;32.30;;;-1.80;95.30;;;;;;10379167;28;20222;-80
2022/12/18 03:21:58;;;;;;;38.70;30.80;;;-1.90;94.60;;;;;;10417532;28;20225;-81
2022/12/18 03:27:03;;;;;;;38.87;29.93;;;-2.00;94.50;;;;;;10399384;28;20486;-81
2022/12/18 03:32:12;;;;;;;39.70;30.53;;;-2.10;94.30;;;;;;10406467;28;20295;-81
2022/12/18 03:37:14;;;;;;;40.57;29.73;;;-2.30;94.30;;;;;;10411517;28;20492;-80
2022/12/18 03:42:24;;;;;;;40.70;30.70;;;-2.40;93.70;;;;;;10408967;28;20445;-81
2022/12/18 03:47:36;;;;;;;42.73;30.70;;;-2.60;93.80;;;;;;10406300;28;20646;-81
2022/12/18 03:52:46;;;;;;;40.43;29.40;;;-2.80;93.90;;;;;;10407543;28;20491;-81
2022/12/18 03:57:50;;;;;;;44.87;31.67;;;-2.90;93.70;;;;;;10407272;28;20511;-80
2022/12/18 04:02:56;;;;;;;38.50;29.20;;;-3.00;93.50;;;;;;10410074;28;20796;-79
2022/12/18 04:08:06;;;;;;;38.70;26.73;;;-3.10;93.40;;;;;;10403966;28;20476;-80
2022/12/18 04:13:12;;;;;;;42.03;28.60;;;-3.30;93.30;;;;;;10427847;28;20508;-81
2022/12/18 04:18:16;;;;;;;40.37;29.47;;;-3.40;93.10;;;;;;10428928;28;20449;-80
2022/12/18 04:23:19;;;;;;;39.93;27.97;;;-3.50;93.70;;;;;;10429987;28;20992;-81
2022/12/18 04:28:21;;;;;;;41.53;29.30;;;-3.60;93.30;;;;;;10419764;28;20465;-80
2022/12/18 04:33:25;;;;;;;37.63;27.90;;;-3.70;93.50;;;;;;10389218;28;20432;-80
2022/12/18 04:38:27;;;;;;;37.50;27.50;;;-3.70;93.40;;;;;;10422655;28;20483;-81
2022/12/18 04:43:38;;;;;;;41.00;29.57;;;-3.70;93.60;;;;;;10404798;28;20960;-80
2022/12/18 04:48:42;;;;;;;39.90;28.23;;;-3.80;92.70;;;;;;10403676;28;20665;-80
2022/12/18 04:53:44;;;;;;;41.80;27.10;;;-3.90;92.70;;;;;;10422341;28;20432;-81
2022/12/18 04:58:46;;;;;;;36.20;26.73;;;-4.00;92.50;;;;;;10420433;28;20956;-81
2022/12/18 05:03:49;;;;;;;41.30;28.53;;;-4.10;92.80;;;;;;10404007;28;20471;-81
2022/12/18 05:08:51;;;;;;;39.13;28.10;;;-4.20;93.40;;;;;;10418735;28;20567;-81
2022/12/18 05:13:53;;;;;;;40.43;28.07;;;-4.10;94.90;;;;;;10420102;28;20920;-81
2022/12/18 05:19:00;;;;;;;41.60;30.43;;;-4.00;93.30;;;;;;10419049;28;20504;-81
2022/12/18 05:24:02;;;;;;;36.40;26.37;;;-3.90;93.50;;;;;;10407957;28;20431;-80
2022/12/18 05:29:04;;;;;;;35.70;26.33;;;-4.00;93.30;;;;;;10409636;28;20469;-81
2022/12/18 05:34:08;;;;;;;38.90;27.33;;;-4.00;92.60;;;;;;10435772;28;20421;-80
2022/12/18 05:39:10;;;;;;;37.43;25.37;;;-4.00;92.50;;;;;;10422680;28;21020;-80
2022/12/18 05:44:12;;;;;;;40.37;26.93;;;-4.00;91.90;;;;;;10424831;28;20440;-81
2022/12/18 05:49:15;;;;;;;36.40;26.07;;;-4.20;92.20;;;;;;10406532;28;20502;-81
2022/12/18 05:54:17;;;;;;;38.43;26.80;;;-4.30;92.30;;;;;;10387833;28;20460;-81
2022/12/18 05:59:19;;;;;;;35.07;25.20;;;-4.40;92.40;;;;;;10426543;28;20465;-81
2022/12/18 06:04:23;;;;;;;34.80;24.80;;;-4.50;92.10;;;;;;10426647;28;20425;-81
2022/12/18 06:09:25;;;;;;;39.67;26.73;;;-4.50;91.50;;;;;;10429403;28;20479;-80
2022/12/18 06:14:27;;;;;;;38.07;26.40;;;-4.60;91.90;;;;;;10438691;28;20428;-81
2022/12/18 06:19:30;;;;;;;34.23;23.43;;;-4.70;92.00;;;;;;10423219;28;20464;-80
2022/12/18 06:24:32;;;;;;;34.97;24.47;;;-4.70;91.60;;;;;;10422684;28;20459;-81
2022/12/18 06:29:34;;;;;;;36.33;25.77;;;-4.80;92.10;;;;;;10383007;28;21052;-81
2022/12/18 06:34:39;;;;;;;35.57;26.07;;;-4.80;92.00;;;;;;10377197;28;20518;-81
2022/12/18 06:39:41;;;;;;;34.20;23.60;;;-4.80;93.20;;;;;;10431624;28;20459;-79
2022/12/18 06:44:43;;;;;;;32.07;22.60;;;-4.70;93.80;;;;;;10388108;28;20518;-81
2022/12/18 06:49:46;;;;;;;37.43;23.70;;;-4.60;92.30;;;;;;10401433;28;20488;-81
2022/12/18 06:54:48;;;;;;;33.17;24.60;;;-4.50;93.50;;;;;;10366628;28;20888;-80
2022/12/18 06:59:51;;;;;;;32.80;26.27;;;-4.40;93.10;;;;;;10394541;28;20495;-81
2022/12/18 07:04:54;;;;;;;34.87;26.90;;;-4.30;92.50;;;;;;10401278;28;20432;-82
2022/12/18 07:09:56;;;;;;;33.10;25.40;;;-4.30;93.00;;;;;;10409878;28;20472;-82
2022/12/18 07:14:59;;;;;;;33.50;24.17;;;-4.30;92.10;;;;;;10415915;28;20946;-81
2022/12/18 07:20:02;;;;;;;35.17;27.63;;;-4.30;92.30;;;;;;10426129;28;20448;-81
2022/12/18 07:25:05;;;;;;;35.20;26.27;;;-4.20;92.10;;;;;;10431594;28;20452;-80
2022/12/18 07:30:08;;;;;;;35.13;26.00;;;-4.30;91.90;;;;;;10405101;28;20479;-81
2022/12/18 07:35:12;;;;;;;36.73;27.43;;;-4.30;91.80;;;;;;10423989;28;20538;-81
2022/12/18 07:40:14;;;;;;;33.33;25.37;;;-4.30;93.20;;;;;;10405406;28;21035;-80
2022/12/18 07:45:16;;;;;;;37.13;26.50;;;-4.20;93.70;;;;;;10424969;28;20920;-81
2022/12/18 07:50:20;;;;;;;53.23;36.30;;;-4.10;94.10;;;;;;10424497;28;20988;-80
2022/12/18 07:55:22;;;;;;;43.60;29.90;;;-4.00;93.80;;;;;;10406903;28;20447;-82
2022/12/18 08:00:24;;;;;;;33.93;25.80;;;-3.80;93.80;;;;;;10426783;28;20460;-82
2022/12/18 08:05:27;;;;;;;38.30;28.63;;;-3.70;93.50;;;;;;10427114;28;20580;-82
2022/12/18 08:10:30;;;;;;;40.10;28.83;;;-3.60;94.10;;;;;;10394141;28;20472;-81
2022/12/18 08:15:32;;;;;;;38.40;28.60;;;-3.50;93.80;;;;;;10409676;28;20421;-81
2022/12/18 08:20:36;;;;;;;31.40;23.60;;;-3.40;93.30;;;;;;10416841;28;20488;-82
2022/12/18 08:25:38;;;;;;;35.83;28.53;;;-3.40;93.10;;;;;;10416742;28;20433;-81
2022/12/18 08:30:40;;;;;;;36.00;28.90;;;-3.40;92.70;;;;;;10406976;28;20486;-81
2022/12/18 08:35:43;;;;;;;32.63;28.23;;;-3.40;93.50;;;;;;10408336;28;20439;-81
2022/12/18 08:40:46;;;;;;;32.80;26.73;;;-3.40;93.80;;;;;;10425701;28;20455;-82
2022/12/18 08:45:48;;;;;;;40.80;31.00;;;-3.30;94.20;;;;;;10425546;28;20429;-82
2022/12/18 08:50:56;;;;;;;38.27;30.80;;;-3.20;94.40;;;;;;10409412;28;20642;-81
2022/12/18 08:55:58;;;;;;;37.40;30.07;;;-3.10;94.50;;;;;;10427624;28;20786;-82
2022/12/18 09:01:01;;;;;;;36.63;30.67;;;-3.00;94.20;;;;;;10434946;28;20476;-81
2022/12/18 09:06:06;;;;;;;35.40;29.63;;;-2.90;93.90;;;;;;10407052;28;20947;-82
2022/12/18 09:11:14;;;;;;;33.83;28.87;;;-2.80;94.40;;;;;;10422414;28;20535;-82
2022/12/18 09:16:16;;;;;;;41.13;33.10;;;-2.70;95.10;;;;;;10404934;28;20439;-82
2022/12/18 09:21:21;;;;;;;41.63;32.93;;;-2.60;95.60;;;;;;10404300;28;20228;-82
2022/12/18 09:26:27;;;;;;;46.83;35.43;;;-2.40;95.10;;;;;;10422427;28;20511;-82
2022/12/18 09:31:29;;;;;;;44.73;34.63;;;-2.30;94.80;;;;;;10387043;28;20225;-82
2022/12/18 09:36:33;;;;;;;43.60;33.43;;;-2.10;94.80;;;;;;10423518;28;21015;-82
2022/12/18 09:41:42;;;;;;;45.33;36.60;;;-2.00;94.60;;;;;;10404113;28;20456;-82
2022/12/18 09:46:48;;;;;;;48.63;36.80;;;-1.90;94.80;;;;;;10420139;28;20202;-82
2022/12/18 09:51:55;;;;;;;49.43;37.20;;;-1.80;95.10;;;;;;10421413;28;20350;-82
2022/12/18 09:56:57;;;;;;;46.43;35.40;;;-1.70;94.80;;;;;;10388233;28;20653;-82
2022/12/18 10:01:59;;;;;;;51.83;38.47;;;-1.60;94.90;;;;;;10404148;28;20249;-82
2022/12/18 10:07:09;;;;;;;51.80;37.30;;;-1.60;95.20;;;;;;10420302;28;20653;-82
2022/12/18 10:12:19;;;;;;;46.40;36.20;;;-1.50;94.70;;;;;;10419370;28;20697;-83
2022/12/18 10:17:29;;;;;;;47.70;36.37;;;-1.40;95.00;;;;;;10405187;28;20551;-82
2022/12/18 10:22:45;;;;;;;40.80;32.97;;;-1.50;95.10;;;;;;10407424;28;20621;-82
2022/12/18 10:27:47;;;;;;;41.20;30.67;;;-1.40;95.80;;;;;;10410348;28;20254;-82
2022/12/18 10:32:50;;;;;;;39.80;30.07;;;-1.30;96.20;;;;;;10420858;28;20292;-82
2022/12/18 10:38:04;;;;;;;38.20;29.20;;;-1.20;96.10;;;;;;10413787;28;20248;-82
2022/12/18 10:43:12;;;;;;;37.77;28.87;;;-1.10;95.60;;;;;;10433450;28;20254;-82
2022/12/18 10:48:23;;;;;;;40.00;29.73;;;-1.10;95.90;;;;;;10418688;28;20244;-82
2022/12/18 10:53:28;;;;;;;44.03;31.93;;;-1.10;95.90;;;;;;10414118;28;20331;-82
2022/12/18 10:58:33;;;;;;;37.97;28.47;;;-1.10;96.00;;;;;;10412043;28;20232;-82
2022/12/18 11:03:36;;;;;;;40.10;30.97;;;-1.00;96.00;;;;;;10430689;28;20368;-82
2022/12/18 11:08:41;;;;;;;40.50;29.93;;;-0.80;95.60;;;;;;10429681;28;20209;-82
2022/12/18 11:13:55;;;;;;;42.17;30.23;;;-0.90;96.30;;;;;;10411456;28;20216;-82
2022/12/18 11:19:21;;;;;;;40.07;30.17;;;-0.80;96.40;;;;;;10429360;28;20214;-82
2022/12/18 11:24:30;;;;;;;43.27;30.30;;;-0.60;96.40;;;;;;10396838;28;20265;-82
2022/12/18 11:29:35;;;;;;;44.03;31.50;;;-0.60;96.60;;;;;;10371381;28;20222;-82
2022/12/18 11:34:38;;;;;;;40.00;29.27;;;-0.50;97.00;;;;;;10419627;28;20635;-82
2022/12/18 11:39:47;;;;;;;40.37;30.10;;;-0.40;96.70;;;;;;10456616;28;20263;-82
2022/12/18 11:44:52;;;;;;;37.63;27.60;;;-0.30;96.60;;;;;;10435846;28;20194;-82
2022/12/18 11:49:57;;;;;;;36.57;27.30;;;-0.20;96.30;;;;;;10389416;28;20705;-82
2022/12/18 11:55:08;;;;;;;37.73;27.60;;;-0.20;96.00;;;;;;10372481;28;20220;-82
2022/12/18 12:00:16;;;;;;;37.73;29.23;;;-0.20;96.50;;;;;;10391129;28;20301;-82
2022/12/18 12:05:46;;;;;;;38.20;28.77;;;-0.10;96.50;;;;;;10430202;28;20229;-82
2022/12/18 12:11:02;;;;;;;37.23;27.03;;;0.00;96.40;;;;;;10405768;28;20236;-82
2022/12/18 12:16:12;;;;;;;39.23;28.03;;;0.10;95.90;;;;;;10394053;28;20217;-82
2022/12/18 12:21:24;;;;;;;37.07;27.90;;;0.10;96.30;;;;;;10412593;28;20261;-83
2022/12/18 12:26:36;;;;;;;35.17;25.33;;;0.10;96.40;;;;;;10440141;28;20254;-82
2022/12/18 12:31:52;;;;;;;40.00;28.43;;;0.20;96.60;;;;;;10405732;28;20256;-83
2022/12/18 12:37:09;;;;;;;37.17;26.83;;;0.30;95.80;;;;;;10401909;28;20673;-82
2022/12/18 12:47:43;;;;;;;42.60;30.17;;;0.40;96.50;;;;;;10418710;28;20193;-83
2022/12/18 12:52:47;;;;;;;41.37;29.80;;;0.40;96.60;;;;;;10420449;28;20202;-81
2022/12/18 12:58:00;;;;;;;39.87;29.87;;;0.50;95.60;;;;;;10452377;23;20221;31
2022/12/18 13:03:16;;;;;;;39.20;29.60;;;0.50;96.30;;;;;;10468700;28;20206;-79
2022/12/18 13:08:25;;;;;;;36.33;27.23;;;0.60;96.50;;;;;;10446635;28;20210;-80
2022/12/18 13:13:49;;;;;;;37.47;28.47;;;0.60;96.90;;;;;;10441212;28;20202;-79
2022/12/18 13:18:52;;;;;;;40.63;30.50;;;0.70;97.10;;;;;;10441422;28;20289;-78
2022/12/18 13:23:55;;;;;;;41.33;28.83;;;0.80;96.70;;;;;;10440666;28;20198;-79
2022/12/18 13:29:01;;;;;;;40.47;30.00;;;0.90;97.00;;;;;;10444671;28;20206;-79
2022/12/18 13:34:17;;;;;;;41.30;30.50;;;0.90;97.20;;;;;;10457794;28;20196;-79
2022/12/18 13:39:32;;;;;;;39.00;29.17;;;1.00;97.00;;;;;;10409411;28;20213;-80
2022/12/18 13:44:38;;;;;;;48.37;35.00;;;1.10;97.30;;;;;;10422470;28;20202;-80
2022/12/18 13:49:43;;;;;;;46.63;32.90;;;1.10;97.00;;;;;;10407317;28;20715;-79
2022/12/18 13:54:51;;;;;;;41.50;30.93;;;1.20;97.40;;;;;;10419881;28;20228;-78
2022/12/18 13:59:55;;;;;;;42.23;32.30;;;1.30;97.40;;;;;;10421478;28;20785;-78
2022/12/18 14:04:57;;;;;;;44.17;32.50;;;1.30;97.60;;;;;;10419515;28;20667;-79
2022/12/18 14:10:01;;;;;;;44.33;32.00;;;1.30;97.40;;;;;;10419108;28;20245;-78
2022/12/18 14:15:15;;;;;;;44.60;31.37;;;1.30;97.50;;;;;;10420183;28;20697;-79
2022/12/18 14:20:18;;;;;;;48.10;35.27;;;1.30;97.40;;;;;;10415711;28;20206;-79
2022/12/18 14:25:23;;;;;;;42.77;31.37;;;1.30;97.50;;;;;;10424362;28;20206;-79
2022/12/18 14:30:28;;;;;;;43.20;34.20;;;1.30;98.00;;;;;;10423218;28;20217;-79
2022/12/18 14:35:30;;;;;;;50.77;33.50;;;1.30;97.80;;;;;;10424228;28;20264;-79
2022/12/18 14:40:32;;;;;;;48.77;34.87;;;1.30;97.90;;;;;;10423231;28;20221;-78
2022/12/18 14:45:38;;;;;;;47.80;34.70;;;1.30;98.20;;;;;;10419810;28;20206;-78
2022/12/18 14:50:40;;;;;;;49.10;35.37;;;1.30;98.40;;;;;;10399928;28;20217;-78
2022/12/18 14:55:47;;;;;;;47.53;35.50;;;1.30;98.30;;;;;;10434274;28;20708;-79
2022/12/18 15:00:51;;;;;;;44.43;33.80;;;1.20;98.10;;;;;;10418389;28;20642;-77
2022/12/18 15:05:53;;;;;;;44.30;32.90;;;1.20;98.20;;;;;;10438239;28;20667;-79
2022/12/18 15:10:56;;;;;;;48.20;35.90;;;1.10;98.00;;;;;;10425395;28;20250;-78
2022/12/18 15:16:03;;;;;;;49.47;36.33;;;1.10;98.10;;;;;;10419400;28;20570;-79
2022/12/18 15:21:11;;;;;;;48.00;35.17;;;1.00;97.80;;;;;;10418572;28;20570;-79
2022/12/18 15:26:15;;;;;;;49.47;36.50;;;0.90;97.70;;;;;;10439636;28;20194;-79
2022/12/18 15:31:30;;;;;;;54.87;39.00;;;0.70;97.90;;;;;;10426196;28;20218;-78
2022/12/18 15:36:36;;;;;;;57.77;40.57;;;0.60;97.90;;;;;;10439810;28;20657;-79
2022/12/18 15:41:38;;;;;;;52.53;38.50;;;0.50;97.90;;;;;;10426580;28;20279;-79
2022/12/18 15:46:41;;;;;;;52.83;39.37;;;0.50;97.60;;;;;;10426764;28;20198;-79
2022/12/18 15:51:43;;;;;;;51.17;38.60;;;0.30;98.00;;;;;;10426836;28;20686;-79
2022/12/18 16:02:16;;;;;;;50.90;37.00;;;0.20;98.40;;;;;;10416435;28;20308;-79
2022/12/18 16:07:19;;;;;;;53.03;39.97;;;0.20;98.00;;;;;;10428645;28;20198;-79
2022/12/18 16:12:23;;;;;;;50.90;36.93;;;0.20;98.20;;;;;;10427750;28;20214;-79
2022/12/18 16:17:27;;;;;;;48.40;37.30;;;0.10;98.10;;;;;;10440722;28;20202;-78
2022/12/18 16:22:32;;;;;;;52.40;40.50;;;0.10;98.10;;;;;;10431575;28;20221;-79
2022/12/18 16:27:34;;;;;;;53.80;40.53;;;0.00;97.90;;;;;;10426822;28;20232;-78
2022/12/18 16:32:37;;;;;;;57.87;41.20;;;0.00;98.10;;;;;;10427040;28;20312;-79
2022/12/18 16:37:40;;;;;;;58.30;43.77;;;0.00;98.20;;;;;;10425644;28;20681;-79
2022/12/18 16:42:44;;;;;;;58.47;43.50;;;-0.10;98.60;;;;;;10426004;28;20218;-79
2022/12/18 16:47:49;;;;;;;55.83;39.97;;;0.00;98.60;;;;;;10425522;28;20225;-79
2022/12/18 16:52:51;;;;;;;55.53;40.60;;;0.00;98.40;;;;;;10443847;28;20409;-78
2022/12/18 16:57:53;;;;;;;55.80;43.67;;;0.00;98.40;;;;;;10440477;28;20575;-79
2022/12/18 17:02:56;;;;;;;55.90;41.40;;;0.00;98.40;;;;;;10425207;28;20194;-79
2022/12/18 17:07:58;;;;;;;53.63;39.63;;;0.00;98.40;;;;;;10419832;28;20244;-80
2022/12/18 17:13:00;;;;;;;50.93;38.37;;;0.00;98.20;;;;;;10422675;28;20218;-80
2022/12/18 17:18:07;;;;;;;51.03;36.80;;;0.00;99.20;;;;;;10436144;28;20198;-80
2022/12/18 17:23:12;;;;;;;46.83;35.80;;;0.10;99.30;;;;;;10417225;28;20285;-80
2022/12/18 17:28:20;;;;;;;47.60;35.93;;;0.30;99.20;;;;;;10425916;28;20221;-80
2022/12/18 17:33:24;;;;;;;47.50;36.80;;;0.40;99.40;;;;;;10437798;28;20224;-78
2022/12/18 17:38:27;;;;;;;47.00;36.43;;;0.50;98.60;;;;;;10419760;28;20225;-78
2022/12/18 17:43:29;;;;;;;49.80;35.80;;;0.60;98.40;;;;;;10420078;28;20585;-78
2022/12/18 17:48:33;;;;;;;46.07;34.90;;;0.60;97.90;;;;;;10436201;28;20237;-78
2022/12/18 17:53:35;;;;;;;44.20;32.60;;;0.70;97.20;;;;;;10421875;28;20214;-78
2022/12/18 17:58:37;;;;;;;50.97;37.57;;;0.60;97.10;;;;;;10420558;28;20225;-78
2022/12/18 18:03:44;;;;;;;52.40;37.40;;;0.60;96.50;;;;;;10422446;28;20201;-77
2022/12/18 18:08:46;;;;;;;39.87;32.57;;;0.40;97.10;;;;;;10412128;28;20304;-78
2022/12/18 18:14:01;;;;;;;52.37;39.80;;;0.40;96.90;;;;;;10420977;28;20604;-78
2022/12/18 18:19:07;;;;;;;44.17;32.30;;;0.30;97.00;;;;;;10426516;28;20228;-78
2022/12/18 18:24:11;;;;;;;41.37;31.37;;;0.30;96.90;;;;;;10422817;28;20182;-78
2022/12/18 18:29:15;;;;;;;43.47;33.43;;;0.40;96.70;;;;;;10429594;28;20574;-78
2022/12/18 18:34:21;;;;;;;46.13;33.77;;;0.40;97.00;;;;;;10400279;28;20217;-78
2022/12/18 18:39:23;;;;;;;58.23;38.50;;;0.40;96.60;;;;;;10419353;28;20224;-78
2022/12/18 18:44:25;;;;;;;55.00;39.03;;;0.40;96.60;;;;;;10436146;28;20228;-80
2022/12/18 18:49:30;;;;;;;41.93;32.50;;;0.40;96.60;;;;;;10401763;28;20222;-78
2022/12/18 18:54:32;;;;;;;43.80;31.03;;;0.40;96.40;;;;;;10436142;28;20208;-80
2022/12/18 18:59:34;;;;;;;49.00;35.00;;;0.30;96.70;;;;;;10436235;22;20288;-79
2022/12/18 19:04:38;;;;;;;41.70;30.93;;;0.30;97.30;;;;;;10383454;28;20222;-80
2022/12/18 19:09:40;;;;;;;42.97;31.20;;;0.40;98.10;;;;;;10366769;28;20242;-80
2022/12/18 19:14:42;;;;;;;39.70;30.50;;;0.50;97.80;;;;;;10381509;28;20277;-80
2022/12/18 19:19:46;;;;;;;40.30;29.90;;;0.60;98.30;;;;;;10364726;28;20627;-80
2022/12/18 19:24:48;;;;;;;40.30;30.87;;;0.70;98.10;;;;;;10384834;28;20201;-80
2022/12/18 19:29:50;;;;;;;38.10;29.07;;;0.80;97.80;;;;;;10367809;28;20218;-80
2022/12/18 19:34:54;;;;;;;40.37;29.87;;;0.80;97.90;;;;;;10380963;28;20200;-80
2022/12/18 19:39:56;;;;;;;44.77;32.17;;;0.90;97.70;;;;;;10391760;28;20218;-80
2022/12/18 19:44:58;;;;;;;44.27;33.50;;;0.90;98.70;;;;;;10388032;28;20247;-81
2022/12/18 19:50:02;;;;;;;43.37;31.37;;;0.90;98.00;;;;;;10383600;28;20210;-81
2022/12/18 19:55:05;;;;;;;43.60;32.60;;;1.00;97.70;;;;;;10384940;28;20199;-81
2022/12/18 20:00:08;;;;;;;45.80;34.20;;;1.00;98.30;;;;;;10368021;28;20226;-81
2022/12/18 20:05:16;;;;;;;46.07;32.63;;;1.00;98.70;;;;;;10381841;28;20197;-82
2022/12/18 20:10:19;;;;;;;45.57;32.97;;;1.10;99.20;;;;;;10332226;28;20242;-82
2022/12/18 20:15:21;;;;;;;42.33;31.60;;;1.20;99.30;;;;;;10361333;28;20230;-82
2022/12/18 20:20:24;;;;;;;48.93;34.70;;;1.30;98.60;;;;;;10369855;28;20222;-82
2022/12/18 20:25:26;;;;;;;45.60;32.47;;;1.40;98.80;;;;;;10381994;28;20290;-81
2022/12/18 20:30:28;;;;;;;41.57;32.00;;;1.40;98.60;;;;;;10384133;28;20487;-82
2022/12/18 20:35:33;;;;;;;49.40;36.57;;;1.40;98.10;;;;;;10388299;28;20442;-81
2022/12/18 20:40:35;;;;;;;40.23;29.70;;;1.40;98.70;;;;;;10389738;28;20246;-81
2022/12/18 20:45:37;;;;;;;44.30;31.20;;;1.40;98.50;;;;;;10366219;28;20241;-81
2022/12/18 20:50:42;;;;;;;40.13;29.40;;;1.40;98.40;;;;;;10368486;28;20211;-81
2022/12/18 20:55:44;;;;;;;44.80;32.47;;;1.40;98.20;;;;;;10385198;28;20201;-81
2022/12/18 21:00:46;;;;;;;43.60;31.50;;;1.40;98.20;;;;;;10386595;28;20227;-81
2022/12/18 21:05:49;;;;;;;49.47;37.17;;;1.40;98.10;;;;;;10381926;28;20203;-81
2022/12/18 21:10:52;;;;;;;49.40;34.90;;;1.40;97.90;;;;;;10388103;28;20234;-81
2022/12/18 21:15:54;;;;;;;50.00;36.10;;;1.30;98.20;;;;;;10392815;28;20218;-81
2022/12/18 21:20:57;;;;;;;49.33;35.70;;;1.30;99.40;;;;;;10385469;28;20206;-81
2022/12/18 21:26:15;;;;;;;48.20;35.60;;;1.30;99.00;;;;;;10384645;28;20670;-81
2022/12/18 21:31:17;;;;;;;47.20;35.00;;;1.40;99.00;;;;;;10368968;28;20214;-81
2022/12/18 21:36:21;;;;;;;43.90;34.40;;;1.40;99.00;;;;;;10376048;28;20195;-81
2022/12/18 21:46:46;;;;;;;47.80;34.10;;;1.30;98.70;;;;;;10382696;28;20198;-82
2022/12/18 21:51:50;;;;;;;47.40;34.73;;;1.20;98.90;;;;;;10379674;28;20686;-82
2022/12/18 21:56:54;;;;;;;48.40;35.53;;;1.20;99.30;;;;;;10363744;28;20209;-81
2022/12/18 22:01:58;;;;;;;43.43;33.83;;;1.20;99.40;;;;;;10399178;28;20257;-81
2022/12/18 22:07:03;;;;;;;42.50;32.70;;;1.20;99.30;;;;;;10356670;28;20203;-81
2022/12/18 22:12:08;;;;;;;45.50;34.33;;;1.20;99.20;;;;;;10381992;28;20294;-81
2022/12/18 22:17:10;;;;;;;46.73;36.90;;;1.20;99.50;;;;;;10349139;28;20262;-82
2022/12/18 22:22:13;;;;;;;44.87;33.67;;;1.20;99.40;;;;;;10369916;28;20217;-81
2022/12/18 22:27:15;;;;;;;49.13;36.00;;;1.20;99.50;;;;;;10359637;28;20195;-81
2022/12/18 22:32:17;;;;;;;90.77;54.80;;;1.30;99.40;;;;;;10367828;28;20233;-81
2022/12/18 22:37:24;;;;;;;51.37;36.37;;;1.30;99.50;;;;;;10358078;28;20206;-81
2022/12/18 22:42:26;;;;;;;48.53;36.33;;;1.30;99.40;;;;;;10367989;28;20222;-81
2022/12/18 22:47:28;;;;;;;49.17;35.63;;;1.30;99.30;;;;;;10389140;28;20241;-81
2022/12/18 22:52:31;;;;;;;48.57;36.10;;;1.30;99.50;;;;;;10359571;28;20752;-81
2022/12/18 22:57:34;;;;;;;50.10;36.30;;;1.30;99.50;;;;;;10376430;28;20229;-81
2022/12/18 23:02:36;;;;;;;52.80;39.10;;;1.30;99.50;;;;;;10357590;28;20329;-81
2022/12/18 23:07:39;;;;;;;45.53;34.10;;;1.30;99.80;;;;;;10346270;28;20205;-81
2022/12/18 23:12:41;;;;;;;47.57;36.90;;;1.40;99.70;;;;;;10375244;28;20309;-81
2022/12/18 23:17:43;;;;;;;50.93;34.57;;;1.40;99.70;;;;;;10370884;28;20290;-81
2022/12/18 23:22:47;;;;;;;46.27;33.60;;;1.40;99.90;;;;;;10371905;28;20215;-82
2022/12/18 23:27:49;;;;;;;48.93;34.83;;;1.40;99.90;;;;;;10353574;28;20670;-82
2022/12/18 23:32:51;;;;;;;50.80;36.87;;;1.50;99.90;;;;;;10370716;28;20329;-82
2022/12/18 23:37:54;;;;;;;44.13;33.97;;;1.50;99.90;;;;;;10362059;28;20203;-82
2022/12/18 23:42:56;;;;;;;50.80;35.00;;;1.40;99.90;;;;;;10355278;28;20274;-82
2022/12/18 23:47:58;;;;;;;48.00;35.73;;;1.40;99.90;;;;;;10360385;28;20245;-82
2022/12/18 23:53:02;;;;;;;49.07;35.97;;;1.50;99.90;;;;;;10369718;28;20678;-82
2022/12/18 23:58:04;;;;;;;44.80;34.27;;;1.50;99.90;;;;;;10362468;28;20670;-81
